Time;durP1;ratioP1;P1;durP2;ratioP2;P2;SDS_P1;SDS_P2;PMS_P1;PMS_P2;Temp;Humidity;BMP_temperature;BMP_pressure;BME280_temperature;BME280_humidity;BME280_pressure;Samples;Min_cycle;Max_cycle;Signal;HPM_P1;HPM_P2
2021/12/05 00:17:45;;;;;;;16.65;12.95;;;2.10;98.30;;;;;;4147896;28;20220;-79
2021/12/05 00:22:15;;;;;;;13.98;12.48;;;2.00;98.30;;;;;;4116410;28;20224;-79
2021/12/05 00:24:21;;;;;;;14.77;12.60;;;2.10;98.30;;;;;;4137500;28;20207;-80
2021/12/05 00:26:25;;;;;;;15.43;12.63;;;2.10;98.30;;;;;;4138025;28;20287;-80
2021/12/05 00:28:48;;;;;;;15.60;12.63;;;2.00;98.30;;;;;;4140094;28;20251;-79
2021/12/05 00:31:17;;;;;;;15.70;13.20;;;2.00;98.30;;;;;;4135088;28;20573;-79
2021/12/05 00:33:39;;;;;;;13.07;11.60;;;1.90;98.30;;;;;;4142388;28;20235;-79
2021/12/05 00:36:22;;;;;;;14.60;12.23;;;2.00;98.30;;;;;;4143200;28;20250;-79
2021/12/05 00:44:11;;;;;;;15.27;13.35;;;2.00;98.30;;;;;;4075279;29;20209;-79
2021/12/05 00:46:23;;;;;;;14.55;12.15;;;2.10;98.30;;;;;;4082257;29;20236;-78
2021/12/05 00:48:48;;;;;;;16.00;13.32;;;1.90;98.30;;;;;;4099060;28;20287;-79
2021/12/05 00:53:46;;;;;;;16.52;12.60;;;2.00;98.30;;;;;;4145673;28;20239;-79
2021/12/05 00:56:00;;;;;;;15.20;11.48;;;2.00;98.30;;;;;;4142496;28;20215;-78
2021/12/05 01:00:48;;;;;;;13.05;11.63;;;1.90;98.30;;;;;;4138339;28;20232;-78
2021/12/05 01:03:16;;;;;;;15.50;12.60;;;2.00;98.30;;;;;;4141600;28;20212;-78
2021/12/05 01:08:09;;;;;;;14.25;12.23;;;2.00;98.30;;;;;;4145732;28;20287;-78
2021/12/05 01:10:27;;;;;;;14.20;11.85;;;2.00;98.30;;;;;;4147300;28;20681;-78
2021/12/05 01:12:45;;;;;;;13.43;11.88;;;1.90;98.30;;;;;;4142105;28;20310;-78
2021/12/05 01:15:00;;;;;;;13.30;11.38;;;2.00;98.30;;;;;;4142124;28;20209;-78
2021/12/05 01:17:06;;;;;;;12.40;11.10;;;2.00;98.30;;;;;;4144079;28;20200;-78
2021/12/05 01:19:11;;;;;;;14.57;12.68;;;1.90;98.30;;;;;;4145708;28;20223;-79
2021/12/05 01:21:19;;;;;;;12.68;11.30;;;2.00;98.30;;;;;;4161163;28;20221;-78
2021/12/05 01:23:30;;;;;;;14.85;12.48;;;1.90;98.30;;;;;;4159795;28;20207;-78
2021/12/05 01:25:43;;;;;;;13.10;11.68;;;1.90;98.30;;;;;;4155510;28;20214;-78
2021/12/05 01:27:52;;;;;;;13.23;11.80;;;1.90;98.30;;;;;;4159773;28;20237;-78
2021/12/05 01:30:00;;;;;;;12.82;10.75;;;2.00;98.30;;;;;;4159662;28;20550;-78
2021/12/05 01:32:14;;;;;;;13.52;12.13;;;1.90;98.30;;;;;;4159386;28;20286;-78
2021/12/05 01:34:30;;;;;;;12.90;10.95;;;2.00;98.30;;;;;;4156664;28;20247;-78
2021/12/05 01:36:40;;;;;;;12.50;11.20;;;2.00;98.30;;;;;;4160582;28;20227;-78
2021/12/05 01:39:03;;;;;;;13.50;11.98;;;1.90;98.30;;;;;;4156293;28;20305;-78
2021/12/05 01:41:35;;;;;;;12.68;11.38;;;2.00;98.30;;;;;;4154510;28;20207;-78
2021/12/05 01:51:02;;;;;;;13.70;11.82;;;1.80;98.30;;;;;;4148704;28;20226;-79
2021/12/05 01:55:54;;;;;;;14.65;13.00;;;1.80;98.30;;;;;;4149793;28;20243;-79
2021/12/05 01:58:26;;;;;;;14.20;12.65;;;1.80;98.30;;;;;;4159259;28;20232;-79
2021/12/05 02:59:59;;;;;;;15.77;13.10;;;2.00;98.30;;;;;;4143143;28;20275;-82
2021/12/05 03:02:16;;;;;;;16.42;12.77;;;2.10;98.30;;;;;;4165374;28;20228;-83
2021/12/05 03:04:26;;;;;;;16.63;13.20;;;2.00;98.30;;;;;;4164567;28;20198;-82
2021/12/05 03:06:49;;;;;;;16.73;14.00;;;2.00;98.30;;;;;;4162335;28;20214;-83
2021/12/05 03:08:58;;;;;;;17.65;14.32;;;2.00;98.30;;;;;;4165782;28;20233;-82
2021/12/05 03:11:05;;;;;;;16.80;13.95;;;1.90;98.30;;;;;;4165926;28;20221;-82
2021/12/05 03:13:09;;;;;;;16.52;14.57;;;1.90;98.30;;;;;;4162917;28;20301;-82
2021/12/05 03:15:18;;;;;;;15.15;13.35;;;1.90;98.30;;;;;;4164440;28;20314;-83
2021/12/05 03:17:23;;;;;;;17.73;14.50;;;1.90;98.30;;;;;;4171307;28;20263;-83
2021/12/05 03:19:27;;;;;;;16.60;14.55;;;2.00;98.30;;;;;;4161507;28;20314;-82
2021/12/05 03:21:30;;;;;;;17.27;14.68;;;2.00;98.30;;;;;;4171524;28;20606;-82
2021/12/05 03:23:33;;;;;;;16.38;14.25;;;2.00;98.30;;;;;;4160659;28;20287;-83
2021/12/05 03:25:42;;;;;;;16.98;15.02;;;2.00;98.30;;;;;;4171373;28;20210;-82
2021/12/05 03:27:47;;;;;;;17.88;14.02;;;2.00;98.30;;;;;;4162882;28;20293;-82
2021/12/05 03:29:51;;;;;;;16.88;14.52;;;1.90;98.30;;;;;;4167830;28;20234;-82
2021/12/05 03:31:57;;;;;;;17.45;15.05;;;2.00;98.30;;;;;;4163079;28;20241;-83
2021/12/05 03:34:02;;;;;;;16.38;14.65;;;2.00;98.30;;;;;;4170571;28;20246;-82
2021/12/05 03:36:07;;;;;;;22.83;15.90;;;2.10;98.30;;;;;;4163088;28;20593;-82
2021/12/05 03:38:11;;;;;;;17.48;14.88;;;2.00;98.30;;;;;;4176944;28;20245;-83
2021/12/05 03:40:16;;;;;;;19.25;15.52;;;2.00;98.30;;;;;;4171466;28;20305;-82
2021/12/05 03:42:19;;;;;;;18.60;15.88;;;2.00;98.30;;;;;;4171435;28;20553;-82
2021/12/05 03:44:25;;;;;;;17.52;15.70;;;2.00;98.30;;;;;;4163507;28;20215;-82
2021/12/05 03:46:30;;;;;;;22.58;17.20;;;2.00;98.30;;;;;;4162837;28;20250;-82
2021/12/05 03:48:38;;;;;;;21.05;14.93;;;2.10;98.30;;;;;;4158475;28;20235;-82
2021/12/05 03:50:45;;;;;;;17.88;14.85;;;2.00;98.30;;;;;;4169772;28;20210;-82
2021/12/05 03:52:49;;;;;;;20.02;15.80;;;2.00;98.30;;;;;;4173979;28;20248;-82
2021/12/05 03:54:53;;;;;;;20.17;16.40;;;1.90;98.30;;;;;;4169075;28;20278;-82
2021/12/05 03:56:56;;;;;;;21.85;16.55;;;2.00;98.30;;;;;;4166008;28;20554;-82
2021/12/05 03:59:12;;;;;;;22.40;16.65;;;2.00;98.30;;;;;;4167472;28;20230;-82
2021/12/05 04:01:20;;;;;;;21.52;17.27;;;2.00;98.30;;;;;;4168212;28;20265;-82
2021/12/05 04:03:29;;;;;;;21.52;17.02;;;2.10;98.30;;;;;;4166037;28;20214;-83
2021/12/05 04:05:35;;;;;;;22.17;16.90;;;2.00;98.30;;;;;;4174580;28;20205;-82
2021/12/05 04:07:40;;;;;;;26.88;17.65;;;2.00;98.30;;;;;;4174622;28;20217;-82
2021/12/05 04:09:46;;;;;;;21.35;16.27;;;2.00;98.30;;;;;;4165592;28;20214;-83
2021/12/05 04:11:58;;;;;;;21.65;17.67;;;1.90;98.30;;;;;;4165204;28;20207;-82
2021/12/05 04:14:06;;;;;;;24.63;17.05;;;1.80;98.30;;;;;;4166059;28;20210;-82
2021/12/05 04:16:10;;;;;;;25.45;18.73;;;1.80;98.30;;;;;;4158180;28;20657;-82
2021/12/05 04:18:13;;;;;;;23.27;16.50;;;1.80;98.30;;;;;;4165837;28;20235;-81
2021/12/05 04:20:18;;;;;;;24.55;18.58;;;1.90;98.30;;;;;;4166073;28;20218;-82
2021/12/05 04:22:25;;;;;;;23.55;18.42;;;1.80;98.30;;;;;;4165827;28;20229;-82
2021/12/05 04:24:30;;;;;;;24.75;17.95;;;1.90;98.30;;;;;;4165849;28;20248;-82
2021/12/05 04:26:34;;;;;;;21.33;17.27;;;1.80;98.30;;;;;;4161036;28;20666;-83
2021/12/05 04:28:38;;;;;;;24.15;17.63;;;1.80;98.30;;;;;;4165769;28;20237;-83
2021/12/05 04:30:41;;;;;;;24.40;18.50;;;1.90;98.30;;;;;;4165164;28;20215;-82
2021/12/05 04:32:45;;;;;;;25.92;20.05;;;1.90;98.30;;;;;;4165524;28;20214;-82
2021/12/05 04:34:48;;;;;;;27.38;19.08;;;1.80;98.30;;;;;;4165294;28;20239;-82
2021/12/05 04:36:56;;;;;;;27.65;20.95;;;1.80;98.30;;;;;;4165618;28;20725;-83
2021/12/05 04:39:03;;;;;;;29.75;22.70;;;1.80;98.30;;;;;;4165584;28;20309;-82
2021/12/05 04:41:07;;;;;;;31.38;20.88;;;1.90;98.30;;;;;;4165640;28;20214;-83
2021/12/05 04:43:10;;;;;;;28.73;21.02;;;1.90;98.30;;;;;;4165480;28;20298;-82
2021/12/05 04:45:16;;;;;;;31.65;20.88;;;1.90;98.30;;;;;;4165546;28;20207;-82
2021/12/05 04:47:22;;;;;;;29.10;21.02;;;1.90;98.30;;;;;;4165555;28;20811;-82
2021/12/05 04:49:25;;;;;;;29.48;21.70;;;1.90;98.30;;;;;;4165403;28;20663;-83
2021/12/05 04:51:32;;;;;;;35.55;22.10;;;1.90;98.30;;;;;;4165290;28;20206;-82
2021/12/05 04:53:36;;;;;;;37.05;21.80;;;1.90;98.30;;;;;;4157665;28;20306;-81
2021/12/05 04:55:41;;;;;;;31.42;21.33;;;1.70;98.30;;;;;;4164889;28;20591;-82
2021/12/05 04:57:46;;;;;;;46.25;28.80;;;1.80;98.30;;;;;;4165147;28;20223;-82
2021/12/05 04:59:52;;;;;;;30.58;21.45;;;1.80;98.30;;;;;;4165324;28;20264;-81
2021/12/05 05:01:58;;;;;;;40.20;23.40;;;1.80;98.30;;;;;;4165013;28;20203;-82
2021/12/05 05:04:05;;;;;;;33.95;22.15;;;1.70;98.30;;;;;;4164451;28;20215;-81
2021/12/05 05:06:12;;;;;;;33.70;21.98;;;1.70;98.30;;;;;;4165231;28;20207;-82
2021/12/05 05:08:16;;;;;;;35.58;21.85;;;1.70;98.30;;;;;;4165542;28;20227;-82
2021/12/05 05:10:22;;;;;;;33.92;21.92;;;1.70;98.30;;;;;;4165111;28;20322;-82
2021/12/05 05:12:27;;;;;;;36.28;22.48;;;1.70;98.30;;;;;;4164993;28;20207;-82
2021/12/05 05:14:30;;;;;;;33.33;21.98;;;1.70;98.30;;;;;;4164954;28;20199;-82
2021/12/05 05:16:34;;;;;;;42.67;25.25;;;1.80;98.30;;;;;;4158938;28;20227;-83
2021/12/05 05:18:45;;;;;;;37.58;22.40;;;1.80;98.30;;;;;;4164471;28;20235;-82
2021/12/05 05:20:55;;;;;;;38.88;24.45;;;1.90;98.30;;;;;;4165211;28;20257;-82
2021/12/05 05:30:33;;;;;;;40.50;22.83;;;1.80;98.30;;;;;;4166501;28;20223;-81
2021/12/05 05:40:03;;;;;;;45.50;23.85;;;1.70;98.30;;;;;;4157945;28;20326;-82
2021/12/05 05:42:33;;;;;;;40.63;25.85;;;1.70;98.30;;;;;;4164852;28;20211;-82
2021/12/05 05:44:57;;;;;;;36.58;25.08;;;1.70;98.30;;;;;;4157116;28;20550;-82
2021/12/05 05:47:05;;;;;;;46.13;25.40;;;1.80;98.30;;;;;;4165744;28;20215;-83
2021/12/05 05:49:16;;;;;;;38.53;25.95;;;1.80;98.30;;;;;;4175706;28;20712;-83
2021/12/05 05:51:20;;;;;;;38.03;25.25;;;1.90;98.30;;;;;;4164923;28;20207;-82
2021/12/05 05:53:23;;;;;;;39.22;23.70;;;1.70;98.30;;;;;;4163887;28;20249;-82
2021/12/05 05:55:26;;;;;;;38.85;24.73;;;1.80;98.30;;;;;;4164713;28;20254;-83
2021/12/05 05:57:34;;;;;;;38.03;24.45;;;1.70;98.30;;;;;;4156080;28;20726;-82
2021/12/05 05:59:45;;;;;;;40.85;26.70;;;1.80;98.30;;;;;;4157151;28;20308;-83
2021/12/05 06:03:19;;;;;;;41.72;24.55;;;1.70;98.30;;;;;;4163919;28;20250;-83
2021/12/05 06:04:23;;;;;;;36.45;24.02;;;1.80;98.30;;;;;;4163604;28;20553;-83
2021/12/05 06:06:30;;;;;;;38.78;24.83;;;1.70;98.30;;;;;;4164674;28;20214;-85
2021/12/05 06:08:37;;;;;;;37.13;24.58;;;1.70;98.30;;;;;;4164185;28;20234;-83
2021/12/05 06:10:42;;;;;;;39.08;24.35;;;1.70;98.30;;;;;;4164160;28;20226;-83
2021/12/05 06:12:46;;;;;;;35.92;24.50;;;1.70;98.30;;;;;;4164385;28;20211;-84
2021/12/05 06:14:52;;;;;;;44.58;30.17;;;1.80;98.30;;;;;;4164142;28;20211;-83
2021/12/05 06:16:55;;;;;;;39.72;25.00;;;1.70;98.30;;;;;;4164520;28;20630;-83
2021/12/05 06:18:58;;;;;;;34.97;23.90;;;1.80;98.30;;;;;;4164171;28;20266;-82
2021/12/05 06:21:02;;;;;;;34.47;24.85;;;1.80;98.30;;;;;;4161938;28;20310;-83
2021/12/05 06:23:05;;;;;;;33.67;22.90;;;1.70;98.30;;;;;;4160977;28;20297;-82
2021/12/05 06:25:13;;;;;;;35.50;24.35;;;1.70;98.30;;;;;;4162032;28;20226;-82
2021/12/05 06:27:17;;;;;;;34.38;22.35;;;1.80;98.30;;;;;;4165241;28;20258;-83
2021/12/05 06:29:22;;;;;;;36.17;22.15;;;1.80;98.30;;;;;;4164827;28;20318;-83
2021/12/05 06:31:42;;;;;;;30.58;22.80;;;1.80;98.30;;;;;;4158434;28;20299;-83
2021/12/05 06:41:10;;;;;;;26.58;20.98;;;1.80;98.30;;;;;;4225313;27;20604;-82
2021/12/05 06:46:05;;;;;;;25.92;20.30;;;2.00;98.30;;;;;;4220426;28;20204;-82
2021/12/05 06:48:09;;;;;;;24.73;19.27;;;2.00;98.30;;;;;;4217755;28;20292;-82
2021/12/05 06:50:17;;;;;;;26.13;19.70;;;2.00;98.30;;;;;;4220518;28;20208;-82
2021/12/05 06:52:21;;;;;;;26.05;20.85;;;2.00;98.30;;;;;;4213123;28;20208;-82
2021/12/05 06:54:24;;;;;;;25.73;20.40;;;2.00;98.30;;;;;;4211868;28;20244;-83
2021/12/05 06:56:29;;;;;;;27.15;19.98;;;2.00;98.30;;;;;;4220644;28;20211;-82
2021/12/05 06:58:35;;;;;;;27.95;21.35;;;1.90;98.30;;;;;;4206079;28;20229;-83
2021/12/05 07:00:41;;;;;;;25.58;19.40;;;1.90;98.30;;;;;;4214435;28;20259;-83
2021/12/05 07:02:44;;;;;;;26.15;19.95;;;2.00;98.30;;;;;;4213900;28;20213;-82
2021/12/05 07:05:04;;;;;;;25.83;19.63;;;2.00;98.30;;;;;;4221787;28;20615;-83
2021/12/05 07:07:14;;;;;;;26.73;20.80;;;2.10;98.30;;;;;;4210430;28;20566;-83
2021/12/05 07:09:17;;;;;;;28.05;20.50;;;2.10;98.30;;;;;;4214294;28;20311;-82
2021/12/05 07:11:24;;;;;;;29.75;21.48;;;2.00;98.30;;;;;;4218876;28;20292;-82
2021/12/05 07:15:58;;;;;;;29.27;22.45;;;2.10;98.30;;;;;;4214887;28;20213;-82
2021/12/05 07:20:36;;;;;;;25.90;20.40;;;2.10;98.30;;;;;;4219944;28;20256;-82
2021/12/05 07:22:50;;;;;;;32.00;22.17;;;2.00;98.30;;;;;;4216888;28;20647;-83
2021/12/05 07:25:04;;;;;;;26.83;19.90;;;2.00;98.30;;;;;;4216210;28;20705;-82
2021/12/05 07:41:47;;;;;;;39.25;28.38;;;2.00;98.30;;;;;;4210799;28;20204;-82
2021/12/05 07:43:51;;;;;;;31.95;23.20;;;2.00;98.30;;;;;;4221717;28;20247;-82
2021/12/05 07:46:01;;;;;;;32.00;23.73;;;2.00;98.30;;;;;;4207834;28;20635;-83
2021/12/05 07:48:11;;;;;;;34.22;24.35;;;1.90;98.30;;;;;;4218259;28;20235;-82
2021/12/05 07:50:21;;;;;;;32.97;22.83;;;2.00;98.30;;;;;;4216052;28;20201;-82
2021/12/05 07:52:27;;;;;;;30.38;21.80;;;2.10;98.30;;;;;;4205144;28;20699;-81
2021/12/05 07:54:43;;;;;;;33.53;24.80;;;2.10;98.30;;;;;;4195766;28;20663;-82
2021/12/05 07:56:52;;;;;;;27.83;22.10;;;2.10;98.30;;;;;;4204672;28;20217;-82
2021/12/05 07:59:09;;;;;;;31.05;22.63;;;2.10;98.30;;;;;;4198913;28;20786;-82
2021/12/05 08:14:20;;;;;;;30.27;22.27;;;2.10;98.30;;;;;;4196951;28;20231;-82
2021/12/05 08:15:42;;;;;;;31.52;23.80;;;2.10;98.30;;;;;;4198776;28;20215;-82
2021/12/05 08:17:52;;;;;;;30.05;23.63;;;2.10;98.30;;;;;;4208420;28;20215;-82
2021/12/05 08:19:55;;;;;;;34.70;21.70;;;2.10;98.30;;;;;;4208198;28;20203;-82
2021/12/05 08:21:58;;;;;;;31.02;24.42;;;2.10;98.30;;;;;;4207660;28;20728;-84
2021/12/05 08:24:02;;;;;;;29.38;22.27;;;2.00;98.30;;;;;;4207021;28;20208;-85
2021/12/05 08:26:09;;;;;;;34.28;24.85;;;2.10;98.30;;;;;;4206136;28;20236;-84
2021/12/05 08:28:25;;;;;;;32.20;23.40;;;2.10;98.30;;;;;;4212994;28;20228;-84
2021/12/05 08:30:32;;;;;;;30.85;23.13;;;2.20;98.30;;;;;;4207182;28;20268;-83
2021/12/05 08:32:48;;;;;;;28.35;21.63;;;2.20;98.30;;;;;;4207181;28;20224;-84
2021/12/05 08:35:11;;;;;;;26.65;20.92;;;2.10;98.30;;;;;;4207407;28;20299;-84
2021/12/05 08:45:15;;;;;;;29.60;23.00;;;2.10;98.30;;;;;;4141461;28;20206;-85
2021/12/05 09:27:58;;;;;;;25.48;20.90;;;2.00;98.30;;;;;;4162903;28;20301;-86
2021/12/05 09:30:26;;;;;;;29.70;23.40;;;2.00;98.30;;;;;;4182450;28;20213;-86
2021/12/05 10:06:43;;;;;;;25.77;20.73;;;2.10;98.30;;;;;;4214260;28;20205;-85
2021/12/05 10:11:05;;;;;;;25.05;21.15;;;2.20;98.30;;;;;;4191472;28;20231;-85
2021/12/05 10:13:17;;;;;;;29.73;22.38;;;2.10;98.30;;;;;;4208202;28;20213;-85
2021/12/05 10:15:38;;;;;;;30.00;22.45;;;2.20;98.30;;;;;;4203147;28;20208;-88
2021/12/05 10:18:30;;;;;;;28.48;22.13;;;2.30;98.30;;;;;;4210345;28;20225;-86
2021/12/05 10:35:12;;;;;;;24.45;21.40;;;2.20;98.30;;;;;;4197171;28;20694;-86
2021/12/05 10:37:21;;;;;;;27.20;21.95;;;2.30;98.30;;;;;;4208327;28;20690;-86
2021/12/05 10:39:24;;;;;;;29.15;22.13;;;2.30;98.30;;;;;;4205167;28;20240;-85
2021/12/05 10:41:59;;;;;;;26.25;21.58;;;2.20;98.30;;;;;;4206592;28;20233;-86
2021/12/05 10:44:06;;;;;;;27.17;21.63;;;2.20;98.30;;;;;;4193141;28;20233;-86
2021/12/05 10:46:12;;;;;;;23.55;20.67;;;2.30;98.30;;;;;;4198040;28;20564;-86
2021/12/05 10:48:25;;;;;;;27.80;22.38;;;2.30;98.30;;;;;;4204167;28;20237;-86
2021/12/05 10:50:37;;;;;;;27.08;22.38;;;2.20;98.30;;;;;;4206255;28;20616;-86
2021/12/05 10:52:40;;;;;;;27.70;22.27;;;2.20;98.30;;;;;;4206304;28;20636;-86
2021/12/05 10:54:44;;;;;;;30.58;24.00;;;2.20;98.30;;;;;;4198775;28;20208;-86
2021/12/05 10:56:51;;;;;;;25.45;20.50;;;2.30;98.30;;;;;;4197769;28;20324;-87
2021/12/05 10:58:58;;;;;;;26.40;22.50;;;2.30;98.30;;;;;;4206178;28;20316;-87
2021/12/05 11:01:13;;;;;;;28.27;21.75;;;2.40;98.30;;;;;;4200012;28;20258;-86
2021/12/05 11:03:19;;;;;;;31.20;24.50;;;2.40;98.30;;;;;;4198992;28;20250;-87
2021/12/05 11:05:37;;;;;;;27.60;22.23;;;2.60;98.30;;;;;;4198031;28;20220;-87
2021/12/05 11:07:40;;;;;;;26.40;22.48;;;2.60;98.30;;;;;;4211586;28;20283;-86
2021/12/05 11:09:46;;;;;;;33.15;25.33;;;2.40;98.30;;;;;;4201614;28;20240;-86
2021/12/05 11:11:52;;;;;;;29.27;22.95;;;2.40;98.30;;;;;;4200214;28;20205;-86
2021/12/05 11:13:58;;;;;;;29.95;24.20;;;2.40;98.30;;;;;;4201071;28;20209;-86
2021/12/05 11:16:01;;;;;;;28.42;23.20;;;2.40;98.30;;;;;;4192586;28;20220;-86
2021/12/05 11:18:06;;;;;;;29.70;22.73;;;2.50;98.30;;;;;;4201623;28;20248;-86
2021/12/05 11:20:17;;;;;;;33.08;26.80;;;2.50;98.30;;;;;;4196168;28;20292;-88
2021/12/05 11:22:25;;;;;;;29.73;23.50;;;2.50;98.30;;;;;;4206604;28;20226;-87
2021/12/05 11:24:31;;;;;;;29.27;23.65;;;2.40;98.30;;;;;;4189321;28;20221;-87
2021/12/05 11:26:38;;;;;;;31.13;24.98;;;2.40;98.30;;;;;;4195952;28;20209;-86
2021/12/05 11:28:54;;;;;;;31.98;25.08;;;2.40;98.30;;;;;;4196442;28;20740;-86
2021/12/05 11:30:58;;;;;;;30.92;25.40;;;2.60;98.30;;;;;;4196670;28;20736;-82
2021/12/05 11:33:06;;;;;;;30.60;23.80;;;2.60;98.30;;;;;;4201260;28;20201;-82
2021/12/05 11:35:25;;;;;;;33.75;27.02;;;2.40;98.30;;;;;;4206692;28;20648;-82
2021/12/05 11:37:49;;;;;;;30.83;24.48;;;2.40;98.30;;;;;;4209798;28;20701;-83
2021/12/05 11:40:03;;;;;;;32.38;24.70;;;2.60;98.30;;;;;;4203007;28;20225;-82
2021/12/05 11:42:18;;;;;;;30.75;25.00;;;2.70;98.30;;;;;;4203142;28;20225;-82
2021/12/05 11:44:23;;;;;;;32.63;26.88;;;2.60;98.30;;;;;;4201267;28;20278;-82
2021/12/05 12:03:14;;;;;;;33.50;26.00;;;2.50;98.30;;;;;;4199802;28;20252;-84
2021/12/05 12:05:25;;;;;;;35.33;27.33;;;2.50;98.30;;;;;;4232142;27;20212;-84
2021/12/05 12:07:36;;;;;;;34.55;27.02;;;2.50;98.30;;;;;;4229916;27;20195;-84
2021/12/05 12:09:50;;;;;;;35.35;27.27;;;2.50;98.30;;;;;;4237001;27;20287;-84
2021/12/05 12:12:01;;;;;;;34.08;27.05;;;2.40;98.30;;;;;;4251613;27;20194;-84
2021/12/05 12:14:09;;;;;;;33.40;25.80;;;2.40;98.30;;;;;;4217115;27;20290;-84
2021/12/05 12:16:15;;;;;;;34.28;26.63;;;2.30;98.30;;;;;;4243158;27;20210;-84
2021/12/05 12:18:25;;;;;;;35.38;27.25;;;2.40;98.30;;;;;;4239923;27;20329;-84
2021/12/05 12:20:29;;;;;;;35.72;27.05;;;2.50;98.30;;;;;;4243818;27;20635;-84
2021/12/05 12:22:33;;;;;;;35.95;28.95;;;2.50;98.30;;;;;;4224683;27;20234;-85
2021/12/05 12:24:37;;;;;;;37.42;27.27;;;2.50;98.30;;;;;;4241373;27;20665;-84
2021/12/05 12:26:40;;;;;;;37.40;28.45;;;2.40;98.30;;;;;;4242475;27;20556;-84
2021/12/05 12:28:45;;;;;;;37.33;28.77;;;2.40;98.30;;;;;;4242408;27;20231;-84
2021/12/05 12:30:55;;;;;;;33.83;28.05;;;2.40;98.30;;;;;;4230411;27;20238;-84
2021/12/05 12:33:04;;;;;;;36.30;27.92;;;2.50;98.30;;;;;;4233107;27;20264;-84
2021/12/05 12:35:12;;;;;;;35.75;27.42;;;2.60;98.30;;;;;;4238194;27;20567;-84
2021/12/05 12:37:16;;;;;;;36.97;27.85;;;2.60;98.30;;;;;;4240028;27;20670;-84
2021/12/05 12:39:29;;;;;;;35.67;28.33;;;2.50;98.30;;;;;;4244336;27;20254;-84
2021/12/05 12:41:34;;;;;;;35.17;27.17;;;2.50;98.30;;;;;;4238791;27;20986;-84
2021/12/05 12:43:44;;;;;;;38.03;27.90;;;2.60;98.30;;;;;;4245605;27;20263;-84
2021/12/05 12:45:47;;;;;;;40.72;29.95;;;2.50;98.30;;;;;;4226992;27;20221;-85
2021/12/05 12:47:55;;;;;;;37.30;27.95;;;2.60;98.30;;;;;;4230404;27;20231;-84
2021/12/05 12:50:37;;;;;;;37.92;27.80;;;2.60;98.30;;;;;;4231907;27;20196;-84
2021/12/05 12:53:00;;;;;;;34.78;27.00;;;2.60;98.30;;;;;;4226848;27;20199;-85
2021/12/05 12:55:12;;;;;;;38.70;22.60;;;2.70;98.30;;;;;;4224883;28;21168;-84
2021/12/05 12:57:19;;;;;;;39.95;27.80;;;2.60;98.30;;;;;;4243428;27;20741;-83
2021/12/05 12:59:29;;;;;;;37.67;26.73;;;2.60;98.30;;;;;;4238637;27;20224;-85
2021/12/05 13:02:03;;;;;;;33.15;25.10;;;2.70;98.30;;;;;;4229100;27;20204;-84
2021/12/05 13:04:37;;;;;;;37.58;28.40;;;2.70;98.30;;;;;;4230250;27;20286;-85
2021/12/05 13:11:31;;;;;;;37.83;27.85;;;2.60;98.30;;;;;;4238736;27;20581;-85
2021/12/05 13:13:36;;;;;;;39.35;27.25;;;2.50;98.30;;;;;;4229126;27;20212;-84
2021/12/05 13:15:44;;;;;;;38.78;28.05;;;2.60;98.30;;;;;;4239307;27;20588;-86
2021/12/05 13:17:50;;;;;;;37.35;28.75;;;2.60;98.30;;;;;;4231972;27;20608;-85
2021/12/05 13:20:03;;;;;;;37.65;27.10;;;2.60;98.30;;;;;;4240961;27;20211;-84
2021/12/05 13:22:08;;;;;;;36.58;27.85;;;2.60;98.30;;;;;;4236913;27;20203;-85
2021/12/05 13:24:25;;;;;;;34.40;28.00;;;2.50;98.30;;;;;;4239620;27;20215;-84
2021/12/05 13:26:42;;;;;;;39.13;28.23;;;2.50;98.30;;;;;;4242724;27;20702;-84
2021/12/05 13:28:49;;;;;;;37.30;28.30;;;2.50;98.30;;;;;;4228748;27;20235;-85
2021/12/05 13:30:53;;;;;;;37.65;28.08;;;2.50;98.30;;;;;;4238827;27;20218;-84
2021/12/05 13:33:18;;;;;;;38.78;28.35;;;2.50;98.30;;;;;;4234671;27;20201;-85
2021/12/05 13:35:32;;;;;;;37.08;26.77;;;2.60;98.30;;;;;;4245345;27;20310;-84
2021/12/05 13:37:42;;;;;;;35.60;27.08;;;2.60;98.30;;;;;;4246692;27;20627;-84
2021/12/05 13:39:47;;;;;;;35.05;26.13;;;2.60;98.30;;;;;;4239083;27;20239;-85
2021/12/05 13:42:01;;;;;;;36.50;27.40;;;2.60;98.30;;;;;;4223629;27;20536;-84
2021/12/05 13:44:04;;;;;;;33.58;26.13;;;2.60;98.30;;;;;;4235533;27;20254;-84
2021/12/05 13:46:30;;;;;;;35.95;28.08;;;2.60;98.30;;;;;;4241719;27;20291;-85
2021/12/05 13:48:34;;;;;;;32.50;26.95;;;2.50;98.30;;;;;;4228940;27;20707;-84
2021/12/05 13:50:44;;;;;;;35.78;26.73;;;2.40;98.30;;;;;;4228714;27;20294;-86
2021/12/05 13:52:49;;;;;;;35.75;26.08;;;2.50;98.30;;;;;;4230920;27;20203;-85
2021/12/05 13:54:52;;;;;;;32.83;25.48;;;2.50;98.30;;;;;;4236334;27;20291;-84
2021/12/05 13:57:08;;;;;;;32.70;26.02;;;2.40;98.30;;;;;;4223913;27;20302;-84
2021/12/05 13:59:11;;;;;;;32.28;24.80;;;2.40;98.30;;;;;;4237634;27;20761;-85
2021/12/05 14:01:18;;;;;;;34.97;26.35;;;2.40;98.30;;;;;;4236571;27;20236;-85
2021/12/05 14:03:41;;;;;;;30.95;25.45;;;2.40;98.30;;;;;;4241815;27;20222;-85
2021/12/05 14:05:48;;;;;;;35.10;26.88;;;2.40;98.30;;;;;;4229744;27;20211;-85
2021/12/05 14:07:53;;;;;;;38.22;26.60;;;2.30;98.30;;;;;;4236510;27;20210;-85
2021/12/05 14:09:57;;;;;;;33.60;25.02;;;2.30;98.30;;;;;;4239303;27;20206;-85
2021/12/05 14:12:05;;;;;;;38.25;27.27;;;2.30;98.30;;;;;;4235773;27;20210;-84
2021/12/05 14:14:09;;;;;;;36.83;25.88;;;2.30;98.30;;;;;;4237351;27;20199;-84
2021/12/05 14:16:12;;;;;;;32.95;24.35;;;2.20;98.30;;;;;;4234076;27;20203;-84
2021/12/05 14:18:20;;;;;;;32.47;23.70;;;2.20;98.30;;;;;;4236115;27;20248;-85
2021/12/05 14:20:25;;;;;;;31.92;23.98;;;2.10;98.30;;;;;;4237641;27;20286;-86
2021/12/05 14:22:33;;;;;;;31.48;25.65;;;2.10;98.30;;;;;;4230062;28;20224;-85
2021/12/05 14:24:42;;;;;;;31.27;25.77;;;2.10;98.30;;;;;;4237424;27;20218;-84
2021/12/05 14:26:49;;;;;;;31.02;23.65;;;2.10;98.30;;;;;;4240679;27;20294;-85
2021/12/05 14:28:57;;;;;;;33.58;24.33;;;2.10;98.30;;;;;;4225141;28;20222;-85
2021/12/05 14:31:00;;;;;;;30.05;23.63;;;2.10;98.30;;;;;;4231953;27;20207;-84
2021/12/05 14:33:04;;;;;;;29.85;22.30;;;2.20;98.30;;;;;;4234126;27;20204;-84
2021/12/05 14:35:10;;;;;;;35.42;26.75;;;2.10;98.30;;;;;;4235789;28;20274;-85
2021/12/05 14:37:15;;;;;;;26.10;22.38;;;2.10;98.30;;;;;;4244372;27;20205;-85
2021/12/05 14:39:24;;;;;;;31.23;23.77;;;2.10;98.30;;;;;;4231475;28;20238;-85
2021/12/05 14:41:31;;;;;;;30.17;22.83;;;2.10;98.30;;;;;;4241074;28;20206;-84
2021/12/05 14:43:34;;;;;;;33.72;23.25;;;2.10;98.30;;;;;;4226054;28;20313;-84
2021/12/05 14:45:39;;;;;;;29.00;23.08;;;2.10;98.30;;;;;;4245946;28;20210;-84
2021/12/05 14:47:45;;;;;;;31.33;25.00;;;2.10;98.30;;;;;;4236349;28;20210;-85
2021/12/05 14:49:51;;;;;;;31.40;24.50;;;2.20;98.30;;;;;;4236161;28;20227;-84
2021/12/05 14:51:56;;;;;;;29.85;24.13;;;2.10;98.30;;;;;;4242408;28;20214;-85
2021/12/05 14:53:59;;;;;;;30.38;23.75;;;2.20;98.30;;;;;;4227590;28;20290;-85
2021/12/05 14:56:04;;;;;;;32.40;24.02;;;2.10;98.30;;;;;;4229706;28;20291;-85
2021/12/05 14:58:09;;;;;;;29.02;23.80;;;2.10;98.30;;;;;;4220533;28;20231;-85
2021/12/05 15:00:18;;;;;;;30.50;24.13;;;2.10;98.30;;;;;;4241289;27;20642;-85
2021/12/05 15:02:21;;;;;;;29.98;23.15;;;2.00;98.30;;;;;;4227341;27;20216;-85
2021/12/05 15:04:30;;;;;;;32.53;25.48;;;2.10;98.30;;;;;;4236653;27;20220;-83
2021/12/05 15:06:39;;;;;;;33.92;24.45;;;2.10;98.30;;;;;;4248370;27;20216;-85
2021/12/05 15:08:42;;;;;;;32.17;24.52;;;2.00;98.30;;;;;;4240986;27;20239;-84
2021/12/05 15:10:48;;;;;;;33.28;25.83;;;2.00;98.30;;;;;;4243019;27;20298;-84
2021/12/05 15:12:55;;;;;;;33.78;24.90;;;2.10;98.30;;;;;;4237354;27;20207;-85
2021/12/05 15:15:01;;;;;;;34.45;26.13;;;2.00;98.30;;;;;;4235349;27;20196;-85
2021/12/05 15:17:13;;;;;;;33.42;24.20;;;2.00;98.30;;;;;;4244910;27;20294;-84
2021/12/05 15:19:17;;;;;;;32.97;24.45;;;2.00;98.30;;;;;;4240491;27;20234;-85
2021/12/05 15:21:21;;;;;;;31.20;24.10;;;2.00;98.30;;;;;;4234960;27;20296;-84
2021/12/05 15:23:29;;;;;;;31.10;24.20;;;2.00;98.30;;;;;;4229888;27;20236;-86
2021/12/05 15:25:36;;;;;;;29.38;22.55;;;2.00;98.30;;;;;;4217509;28;20254;-85
2021/12/05 15:27:43;;;;;;;32.40;23.92;;;2.00;98.30;;;;;;4238008;27;20201;-86
2021/12/05 15:29:51;;;;;;;32.45;24.85;;;2.00;98.30;;;;;;4240346;27;20634;-85
2021/12/05 15:31:54;;;;;;;32.83;24.55;;;2.00;98.30;;;;;;4231391;27;20210;-85
2021/12/05 15:33:57;;;;;;;32.70;24.38;;;1.90;98.30;;;;;;4234827;27;20195;-86
2021/12/05 15:36:01;;;;;;;28.83;22.95;;;1.90;98.30;;;;;;4237004;27;20253;-86
2021/12/05 15:38:10;;;;;;;32.13;24.50;;;2.00;98.30;;;;;;4242422;27;20227;-85
2021/12/05 15:40:17;;;;;;;30.60;23.48;;;2.00;98.30;;;;;;4235271;27;20211;-85
2021/12/05 15:42:24;;;;;;;31.35;23.38;;;2.00;98.30;;;;;;4240081;27;20310;-85